Time;durP1;ratioP1;P1;durP2;ratioP2;P2;SDS_P1;SDS_P2;PMS_P1;PMS_P2;Temp;Humidity;BMP_temperature;BMP_pressure;BME280_temperature;BME280_humidity;BME280_pressure;Samples;Min_cycle;Max_cycle;Signal;HPM_P1;HPM_P2
2021/09/25 00:01:38;;;;;;;8.07;6.93;;;;;;;16.02;100.00;101444.31;10500423;28;20136;-60
2021/09/25 00:06:41;;;;;;;11.40;6.70;;;;;;;15.94;100.00;101453.63;10500178;28;20090;-59
2021/09/25 00:11:43;;;;;;;8.65;6.40;;;;;;;16.14;100.00;101456.69;10500241;28;20052;-58
2021/09/25 00:16:46;;;;;;;8.15;5.40;;;;;;;16.03;100.00;101448.66;10499851;28;20052;-59
2021/09/25 00:21:48;;;;;;;9.30;7.43;;;;;;;15.88;100.00;101443.47;10499593;28;20044;-59
2021/09/25 00:26:50;;;;;;;8.77;6.95;;;;;;;15.69;100.00;101433.31;10500005;28;20492;-59
2021/09/25 00:31:53;;;;;;;9.95;5.80;;;;;;;15.91;100.00;101431.88;10499721;28;20048;-59
2021/09/25 00:36:55;;;;;;;10.82;7.20;;;;;;;15.84;100.00;101430.63;10498764;28;20044;-59
2021/09/25 00:41:58;;;;;;;10.48;7.43;;;;;;;15.85;100.00;101443.69;10499123;28;20041;-59
2021/09/25 00:47:00;;;;;;;12.82;7.43;;;;;;;15.71;100.00;101452.53;10498939;28;20051;-59
2021/09/25 00:52:03;;;;;;;7.40;5.57;;;;;;;15.94;100.00;101440.44;10498770;28;20427;-59
2021/09/25 00:57:05;;;;;;;10.80;7.38;;;;;;;15.95;100.00;101449.19;10498359;28;20056;-59
2021/09/25 01:02:07;;;;;;;11.85;8.40;;;;;;;16.04;100.00;101439.75;10498486;28;20598;-58
2021/09/25 01:07:10;;;;;;;10.68;7.10;;;;;;;15.93;100.00;101441.38;10498425;28;20127;-58
2021/09/25 01:12:13;;;;;;;9.15;7.57;;;;;;;15.83;100.00;101448.25;10498485;28;20044;-59
2021/09/25 01:17:15;;;;;;;11.05;7.95;;;;;;;15.73;100.00;101448.00;10497997;28;20404;-58
2021/09/25 01:22:17;;;;;;;11.45;7.80;;;;;;;15.74;100.00;101446.22;10498349;28;20047;-59
2021/09/25 01:27:20;;;;;;;12.77;7.43;;;;;;;15.98;100.00;101447.16;10498041;28;20052;-59
2021/09/25 01:32:22;;;;;;;17.42;8.93;;;;;;;16.02;100.00;101444.31;10498086;28;20590;-59
2021/09/25 01:37:25;;;;;;;10.00;7.97;;;;;;;15.76;100.00;101446.97;10497654;28;20048;-59
2021/09/25 01:42:27;;;;;;;13.52;8.10;;;;;;;15.82;100.00;101451.84;10497706;28;20051;-60
2021/09/25 01:47:29;;;;;;;10.10;6.63;;;;;;;16.05;100.00;101449.38;10500881;28;20056;-59
2021/09/25 01:52:32;;;;;;;12.35;8.30;;;;;;;15.83;100.00;101442.13;10505717;28;20083;-59
2021/09/25 01:57:34;;;;;;;16.15;8.50;;;;;;;15.83;100.00;101442.97;10505280;28;20492;-59
2021/09/25 02:02:38;;;;;;;15.00;8.63;;;;;;;15.90;100.00;101433.69;10505545;28;20040;-59
2021/09/25 02:07:41;;;;;;;12.38;8.50;;;;;;;15.92;100.00;101436.19;10503959;28;20048;-58
2021/09/25 02:12:44;;;;;;;16.30;9.45;;;;;;;15.93;100.00;101446.66;10504920;28;20059;-59
2021/09/25 02:17:46;;;;;;;11.75;8.95;;;;;;;15.81;100.00;101447.50;10504655;28;20048;-58
2021/09/25 02:22:49;;;;;;;12.55;8.82;;;;;;;15.70;100.00;101445.59;10504856;28;20068;-58
2021/09/25 02:27:51;;;;;;;14.35;9.35;;;;;;;15.76;100.00;101445.19;10504379;28;20048;-58
2021/09/25 02:32:55;;;;;;;13.45;9.35;;;;;;;15.86;100.00;101436.63;10504976;28;20470;-59
2021/09/25 02:37:57;;;;;;;13.18;10.05;;;;;;;15.77;100.00;101425.75;10502634;28;20044;-59
2021/09/25 02:43:00;;;;;;;13.27;8.70;;;;;;;15.89;100.00;101433.78;10504686;28;20044;-59
2021/09/25 02:48:03;;;;;;;13.35;9.32;;;;;;;15.90;100.00;101428.41;10503342;28;20052;-59
2021/09/25 02:53:05;;;;;;;12.90;9.25;;;;;;;15.71;100.00;101427.94;10503565;28;20067;-59
2021/09/25 02:58:07;;;;;;;15.90;10.02;;;;;;;16.03;100.00;101428.38;10501527;28;20492;-59
2021/09/25 03:03:10;;;;;;;16.27;9.43;;;;;;;15.56;100.00;101420.13;10503294;28;20049;-59
2021/09/25 03:08:13;;;;;;;15.00;9.57;;;;;;;15.60;100.00;101426.03;10502907;28;20181;-58
2021/09/25 03:13:15;;;;;;;15.57;10.73;;;;;;;15.67;100.00;101423.81;10501902;28;20071;-59
2021/09/25 03:18:18;;;;;;;11.98;9.20;;;;;;;15.73;100.00;101428.69;10503084;28;20052;-59
2021/09/25 03:23:20;;;;;;;10.52;8.90;;;;;;;15.71;100.00;101427.94;10502554;28;20051;-59
2021/09/25 03:28:22;;;;;;;15.52;8.40;;;;;;;15.70;100.00;101432.38;10502469;28;20056;-59
2021/09/25 03:33:25;;;;;;;15.18;8.50;;;;;;;15.91;100.00;101429.22;10502148;28;20051;-59
2021/09/25 03:38:29;;;;;;;15.80;8.23;;;;;;;15.92;100.00;101439.69;10501544;28;20051;-59
2021/09/25 03:43:32;;;;;;;14.43;9.25;;;;;;;15.63;100.00;101441.66;10501759;28;20044;-58
2021/09/25 03:48:34;;;;;;;16.80;9.00;;;;;;;15.74;100.00;101440.94;10501097;28;20044;-59
2021/09/25 03:53:37;;;;;;;11.35;7.78;;;;;;;15.91;100.00;101439.78;10501038;28;20049;-60
2021/09/25 03:58:40;;;;;;;14.50;9.25;;;;;;;15.88;100.00;101442.66;10499619;28;20045;-59
2021/09/25 04:03:44;;;;;;;17.30;9.52;;;;;;;15.67;100.00;101445.78;10500760;28;20051;-58
2021/09/25 04:08:47;;;;;;;13.05;9.15;;;;;;;15.63;100.00;101439.03;10499902;28;20438;-59
2021/09/25 04:13:49;;;;;;;12.32;7.82;;;;;;;15.48;100.00;101440.91;10499797;28;20071;-58
2021/09/25 04:18:52;;;;;;;16.33;9.73;;;;;;;15.73;100.00;101439.22;10500336;28;20052;-58
2021/09/25 04:23:54;;;;;;;10.68;9.05;;;;;;;15.59;100.00;101448.09;10500151;28;20045;-59
2021/09/25 04:28:59;;;;;;;12.13;8.77;;;;;;;15.76;100.00;101441.69;10499193;28;20052;-59
2021/09/25 04:34:05;;;;;;;16.15;9.40;;;;;;;15.68;100.00;101441.34;10499538;28;20040;-59
2021/09/25 04:39:07;;;;;;;12.38;9.52;;;;;;;15.49;100.00;101434.69;10498917;28;20404;-59
2021/09/25 04:44:14;;;;;;;13.10;8.20;;;;;;;15.68;100.00;101438.72;10499499;28;20052;-59
2021/09/25 04:49:16;;;;;;;13.70;8.75;;;;;;;15.78;100.00;101439.78;10498865;28;20508;-59
2021/09/25 04:54:19;;;;;;;15.68;9.10;;;;;;;15.54;100.00;101427.31;10499340;28;20048;-58
2021/09/25 04:59:21;;;;;;;15.43;8.70;;;;;;;15.59;100.00;101422.56;10498882;28;20510;-59
2021/09/25 05:04:23;;;;;;;11.73;7.82;;;;;;;15.65;100.00;101431.88;10498509;28;20040;-59
2021/09/25 05:09:26;;;;;;;14.25;8.98;;;;;;;15.73;100.00;101429.50;10498290;28;20056;-59
2021/09/25 05:14:28;;;;;;;14.07;9.07;;;;;;;15.59;100.00;101433.09;10498500;28;20048;-59
2021/09/25 05:19:31;;;;;;;13.98;9.18;;;;;;;15.55;100.00;101434.28;10497774;28;20480;-59
2021/09/25 05:24:33;;;;;;;15.93;8.82;;;;;;;15.63;100.00;101432.91;10497578;28;20489;-59
2021/09/25 05:29:35;;;;;;;17.92;10.65;;;;;;;15.42;100.00;101430.78;10497979;28;20056;-59
2021/09/25 05:34:38;;;;;;;14.07;9.10;;;;;;;15.54;100.00;101444.94;10497524;28;20063;-59
2021/09/25 05:39:40;;;;;;;12.13;9.77;;;;;;;15.39;100.00;101445.00;10497587;28;20504;-58
2021/09/25 05:44:45;;;;;;;14.80;10.60;;;;;;;15.63;100.00;101457.50;10497527;28;20432;-59
2021/09/25 05:49:47;;;;;;;16.40;10.45;;;;;;;15.40;100.00;101453.81;10497632;28;20048;-59
2021/09/25 05:54:50;;;;;;;21.65;10.85;;;;;;;15.58;100.00;101451.69;10497534;28;20052;-59
2021/09/25 05:59:52;;;;;;;16.30;10.05;;;;;;;15.89;100.00;101458.38;10497211;28;20489;-59
2021/09/25 06:04:54;;;;;;;19.77;10.98;;;;;;;15.72;100.00;101467.44;10497245;28;20499;-59
2021/09/25 06:09:57;;;;;;;13.48;9.50;;;;;;;15.71;100.00;101468.38;10497105;28;20044;-59
2021/09/25 06:15:00;;;;;;;17.80;11.57;;;;;;;15.78;100.00;101471.47;10497274;28;20044;-59
2021/09/25 06:20:03;;;;;;;13.32;10.43;;;;;;;15.74;100.00;101464.69;10495630;28;20052;-58
2021/09/25 06:25:06;;;;;;;14.98;9.55;;;;;;;15.81;100.00;101466.00;10497126;28;20045;-58
2021/09/25 06:30:09;;;;;;;15.70;9.48;;;;;;;15.81;100.00;101473.06;10497510;28;20053;-59
2021/09/25 06:35:12;;;;;;;12.60;9.48;;;;;;;15.83;100.00;101465.88;10500615;28;20052;-59
2021/09/25 06:40:15;;;;;;;14.80;9.15;;;;;;;15.74;100.00;101477.91;10504269;28;20480;-59
2021/09/25 06:45:17;;;;;;;15.15;9.88;;;;;;;15.89;100.00;101481.31;10503631;28;20401;-59
2021/09/25 06:50:19;;;;;;;15.43;10.25;;;;;;;16.12;100.00;101477.06;10503270;28;20492;-60
2021/09/25 06:55:22;;;;;;;15.98;8.27;;;;;;;16.13;100.00;101479.59;10503840;28;20048;-59
2021/09/25 07:00:24;;;;;;;14.30;9.02;;;;;;;16.15;100.00;101477.72;10502285;28;20051;-59
2021/09/25 07:05:26;;;;;;;13.15;9.15;;;;;;;16.12;100.00;101479.69;10503044;28;20044;-58
2021/09/25 07:10:29;;;;;;;15.68;9.35;;;;;;;16.07;100.00;101487.09;10503183;28;20048;-58
2021/09/25 07:15:32;;;;;;;14.73;10.18;;;;;;;16.06;100.00;101480.97;10502712;28;20044;-59
2021/09/25 07:20:34;;;;;;;12.30;7.80;;;;;;;16.28;100.00;101482.13;10502441;28;20056;-59
2021/09/25 07:25:39;;;;;;;12.77;8.90;;;;;;;16.12;100.00;101490.25;10502288;28;20087;-59
2021/09/25 07:30:43;;;;;;;13.00;9.50;;;;;;;16.25;100.00;101493.72;10501961;28;20392;-59
2021/09/25 07:35:47;;;;;;;16.52;9.77;;;;;;;16.45;100.00;101499.41;10502045;28;20048;-59
2021/09/25 07:40:52;;;;;;;14.45;9.80;;;;;;;16.49;100.00;101512.31;10500175;28;20048;-59
2021/09/25 07:45:58;;;;;;;12.00;7.97;;;;;;;16.44;100.00;101503.00;10501520;28;20132;-58
2021/09/25 07:51:00;;;;;;;14.25;8.45;;;;;;;16.53;100.00;101502.38;10501267;28;20056;-59
2021/09/25 07:56:03;;;;;;;15.45;10.05;;;;;;;16.53;100.00;101508.47;10500751;28;20044;-58
2021/09/25 08:01:06;;;;;;;16.77;10.50;;;;;;;16.64;100.00;101512.16;10500715;28;20049;-59
2021/09/25 08:06:09;;;;;;;16.00;9.88;;;;;;;16.64;100.00;101518.31;10500393;28;20390;-58
2021/09/25 08:11:11;;;;;;;24.00;10.70;;;;;;;16.71;100.00;101524.00;10500408;28;20048;-59
2021/09/25 08:16:14;;;;;;;14.45;9.07;;;;;;;17.05;100.00;101534.81;10500907;28;20051;-59
2021/09/25 08:21:16;;;;;;;15.93;11.05;;;;;;;16.99;100.00;101549.31;10500325;28;20094;-58
2021/09/25 08:26:19;;;;;;;9.00;7.38;;;;;;;17.25;99.73;101549.22;10499790;28;20048;-59
2021/09/25 08:31:21;;;;;;;14.95;11.05;;;;;;;16.70;100.00;101554.88;10499768;28;20055;-58
2021/09/25 08:36:23;;;;;;;16.30;10.20;;;;;;;16.87;100.00;101560.78;10499275;28;20048;-60
2021/09/25 08:41:41;;;;;;;12.68;10.05;;;;;;;17.03;100.00;101566.66;10499067;28;20122;-58
2021/09/25 08:46:43;;;;;;;20.13;12.07;;;;;;;16.84;100.00;101577.69;10498043;28;20049;-58
2021/09/25 08:51:46;;;;;;;15.77;11.30;;;;;;;16.81;100.00;101580.56;10498653;28;20489;-58
2021/09/25 08:56:48;;;;;;;17.00;11.23;;;;;;;16.88;100.00;101568.59;10498007;28;20056;-59
2021/09/25 09:01:51;;;;;;;16.15;12.07;;;;;;;16.99;100.00;101566.97;10498423;28;20051;-59
2021/09/25 09:06:53;;;;;;;14.73;11.70;;;;;;;16.98;100.00;101578.50;10498551;28;20056;-58
2021/09/25 09:11:56;;;;;;;15.80;10.77;;;;;;;17.32;98.35;101579.56;10498096;28;20045;-59
2021/09/25 09:16:58;;;;;;;18.77;14.23;;;;;;;17.12;100.00;101583.66;10498191;28;20071;-59
2021/09/25 09:22:04;;;;;;;19.13;14.00;;;;;;;17.16;100.00;101577.19;10498135;28;20049;-58
2021/09/25 09:27:18;;;;;;;18.25;12.43;;;;;;;17.44;100.00;101586.59;10498511;28;20044;-59
2021/09/25 09:32:20;;;;;;;18.60;12.80;;;;;;;17.25;100.00;101591.56;10497890;28;20044;-58
2021/09/25 09:37:23;;;;;;;27.30;14.68;;;;;;;17.35;100.00;101591.72;10496435;28;20053;-59
2021/09/25 09:42:30;;;;;;;23.52;12.60;;;;;;;17.55;100.00;101595.53;10497764;28;20044;-59
2021/09/25 09:47:43;;;;;;;22.10;15.50;;;;;;;17.43;100.00;101589.34;10496516;28;20052;-58
2021/09/25 09:52:46;;;;;;;23.73;14.68;;;;;;;17.59;98.56;101591.72;10497638;28;20053;-58
2021/09/25 09:58:00;;;;;;;21.67;13.93;;;;;;;18.03;95.38;101592.00;10497523;28;20049;-58
2021/09/25 10:03:03;;;;;;;20.58;12.13;;;;;;;17.96;97.73;101610.16;10497380;28;20056;-59
2021/09/25 10:08:06;;;;;;;18.17;12.75;;;;;;;18.06;96.35;101603.19;10499547;28;20432;-59
2021/09/25 10:13:09;;;;;;;15.70;12.00;;;;;;;18.29;94.49;101603.22;10504324;28;20051;-59
2021/09/25 10:18:11;;;;;;;20.33;15.13;;;;;;;17.87;96.42;101609.06;10505063;28;20044;-59
2021/09/25 10:23:14;;;;;;;20.05;14.98;;;;;;;17.89;96.66;101609.78;10503541;28;20114;-59
2021/09/25 10:28:28;;;;;;;23.58;14.60;;;;;;;18.31;94.57;101611.94;10503991;28;20480;-59
2021/09/25 10:33:30;;;;;;;18.33;12.30;;;;;;;18.50;95.75;101603.38;10504272;28;20431;-59
2021/09/25 10:38:38;;;;;;;22.80;15.25;;;;;;;18.22;97.24;101604.66;10504234;28;20052;-58
2021/09/25 10:43:59;;;;;;;23.75;15.90;;;;;;;18.00;94.99;101601.88;10503894;28;20045;-58
2021/09/25 10:49:14;;;;;;;21.63;15.60;;;;;;;17.95;97.92;101596.06;10503566;28;20052;-59
2021/09/25 10:54:16;;;;;;;22.15;15.55;;;;;;;18.16;96.23;101598.03;10503515;28;20041;-59
2021/09/25 10:59:19;;;;;;;22.58;15.13;;;;;;;18.43;95.81;101592.41;10503212;28;20044;-59
2021/09/25 11:04:22;;;;;;;26.05;17.30;;;;;;;18.45;96.65;101585.16;10503510;28;20503;-59
2021/09/25 11:09:30;;;;;;;23.17;16.77;;;;;;;18.13;95.89;101592.97;10502921;28;20079;-58
2021/09/25 11:14:51;;;;;;;23.58;16.63;;;;;;;18.47;95.44;101582.41;10502988;28;20067;-59
2021/09/25 11:19:58;;;;;;;24.70;15.77;;;;;;;18.60;94.71;101583.13;10501947;28;20048;-60
2021/09/25 11:25:05;;;;;;;20.00;15.57;;;;;;;18.81;93.38;101585.91;10501188;28;20278;-59
2021/09/25 11:30:08;;;;;;;21.20;14.10;;;;;;;19.08;92.64;101584.66;10503014;28;20052;-58
2021/09/25 11:35:14;;;;;;;23.13;15.32;;;;;;;19.35;91.82;101580.72;10502032;28;20048;-59
2021/09/25 11:40:16;;;;;;;24.17;14.45;;;;;;;19.27;89.31;101568.91;10501546;28;20423;-60
2021/09/25 11:45:19;;;;;;;24.88;14.63;;;;;;;19.05;91.25;101559.22;10501989;28;20048;-59
2021/09/25 11:50:27;;;;;;;21.45;14.32;;;;;;;19.21;89.94;101566.75;10500345;28;20053;-60
2021/09/25 11:55:31;;;;;;;52.83;16.05;;;;;;;19.02;90.00;101569.25;10501014;28;20051;-59
2021/09/25 12:00:40;;;;;;;24.92;14.82;;;;;;;19.07;91.58;101565.22;10500760;28;20074;-59
2021/09/25 12:05:53;;;;;;;36.55;14.90;;;;;;;19.08;89.56;101558.09;10499784;28;20048;-60
2021/09/25 12:11:03;;;;;;;17.40;13.50;;;;;;;19.15;88.57;101553.13;10499554;28;20052;-60
2021/09/25 12:16:19;;;;;;;29.23;14.05;;;;;;;19.31;89.33;101556.22;10500738;28;20048;-59
2021/09/25 12:21:23;;;;;;;16.50;11.88;;;;;;;19.27;89.60;101552.97;10499679;28;20401;-59
2021/09/25 12:26:28;;;;;;;19.35;12.40;;;;;;;19.59;88.32;101538.84;10499817;28;20048;-60
2021/09/25 12:31:35;;;;;;;17.80;13.57;;;;;;;19.24;88.11;101545.28;10499107;28;20056;-60
2021/09/25 12:36:42;;;;;;;18.83;13.43;;;;;;;19.27;88.43;101537.06;10499494;28;20059;-59
2021/09/25 12:41:51;;;;;;;21.48;14.30;;;;;;;19.23;87.90;101534.78;10499542;28;20044;-59
2021/09/25 12:46:56;;;;;;;18.00;12.95;;;;;;;19.50;89.20;101531.63;10499105;28;20051;-59
2021/09/25 12:51:59;;;;;;;17.13;11.88;;;;;;;19.46;89.71;101539.00;10498759;28;20056;-59
2021/09/25 12:57:07;;;;;;;14.13;10.93;;;;;;;19.67;85.86;101525.75;10497595;28;20074;-60
2021/09/25 13:02:20;;;;;;;18.48;12.25;;;;;;;19.74;88.21;101520.78;10497255;28;20396;-59
2021/09/25 13:07:29;;;;;;;23.85;11.85;;;;;;;19.65;87.05;101511.78;10499027;28;20051;-59
2021/09/25 13:12:53;;;;;;;15.10;11.02;;;;;;;19.64;85.66;101509.25;10497278;28;20045;-59
2021/09/25 13:17:56;;;;;;;54.30;13.35;;;;;;;19.57;84.61;101505.41;10498319;28;20048;-59
2021/09/25 13:23:00;;;;;;;18.05;10.60;;;;;;;19.60;85.72;101502.50;10497176;28;20055;-60
2021/09/25 13:28:05;;;;;;;15.63;11.23;;;;;;;19.53;82.34;101501.34;10498186;28;20060;-59
2021/09/25 13:33:10;;;;;;;20.58;11.02;;;;;;;19.72;83.94;101488.19;10498949;28;20063;-59
2021/09/25 13:38:13;;;;;;;15.68;10.65;;;;;;;20.00;83.06;101488.47;10497797;28;20045;-60
2021/09/25 13:43:15;;;;;;;18.98;11.35;;;;;;;20.10;82.67;101485.88;10499607;28;20051;-60
2021/09/25 13:48:18;;;;;;;13.65;9.95;;;;;;;20.03;81.31;101486.41;10505911;28;20496;-59
2021/09/25 13:53:21;;;;;;;12.68;9.32;;;;;;;20.30;81.50;101484.97;10505933;28;20051;-59
2021/09/25 13:58:23;;;;;;;11.32;8.15;;;;;;;20.51;82.83;101476.06;10506029;28;20064;-59
2021/09/25 14:03:26;;;;;;;16.60;10.40;;;;;;;20.11;79.96;101483.09;10505658;28;20051;-59
2021/09/25 14:08:30;;;;;;;15.00;10.63;;;;;;;20.15;81.27;101481.84;10505730;28;20041;-58
2021/09/25 14:13:32;;;;;;;11.38;7.88;;;;;;;20.49;84.71;101472.69;10505325;28;20044;-58
2021/09/25 14:18:35;;;;;;;13.25;10.65;;;;;;;20.20;83.80;101463.66;10504857;28;20070;-58
2021/09/25 14:23:37;;;;;;;14.15;9.85;;;;;;;20.35;76.39;101463.28;10504548;28;20396;-58
2021/09/25 14:28:40;;;;;;;11.38;8.90;;;;;;;20.54;80.91;101454.50;10504164;28;20060;-59
2021/09/25 14:33:42;;;;;;;11.98;9.25;;;;;;;20.36;81.87;101459.66;10504500;28;20059;-58
2021/09/25 14:38:44;;;;;;;16.63;10.32;;;;;;;20.03;81.17;101464.31;10504156;28;20044;-58
2021/09/25 14:43:47;;;;;;;14.82;9.88;;;;;;;20.28;81.81;101464.81;10504680;28;20048;-58
2021/09/25 14:48:49;;;;;;;15.25;10.38;;;;;;;20.18;81.44;101456.81;10504240;28;20048;-58
2021/09/25 14:53:53;;;;;;;22.00;12.35;;;;;;;20.32;82.07;101452.94;10502639;28;20162;-59
2021/09/25 14:58:55;;;;;;;23.27;16.05;;;;;;;20.14;83.84;101458.03;10503848;28;20066;-60
2021/09/25 15:03:59;;;;;;;18.20;11.95;;;;;;;20.20;86.91;101449.53;10503370;28;20055;-60
2021/09/25 15:09:02;;;;;;;17.48;13.65;;;;;;;19.88;84.36;101450.53;10504183;28;20048;-60
2021/09/25 15:14:04;;;;;;;17.83;13.52;;;;;;;20.11;86.21;101447.69;10503159;28;20052;-60
2021/09/25 15:19:07;;;;;;;14.50;12.10;;;;;;;20.07;88.47;101440.94;10502466;28;20044;-60
2021/09/25 15:24:09;;;;;;;15.18;11.23;;;;;;;20.15;88.01;101435.81;10502958;28;20123;-60
2021/09/25 15:29:11;;;;;;;16.80;11.15;;;;;;;20.18;89.01;101443.50;10502023;28;20052;-60
2021/09/25 15:34:14;;;;;;;14.35;11.13;;;;;;;20.23;89.10;101433.31;10502451;28;20059;-60
2021/09/25 15:39:16;;;;;;;12.60;9.25;;;;;;;20.49;87.47;101420.34;10501733;28;20048;-60
2021/09/25 15:44:22;;;;;;;12.20;9.25;;;;;;;22.00;79.56;101418.91;10502402;28;20045;-59
2021/09/25 15:49:25;;;;;;;11.32;8.73;;;;;;;22.63;70.19;101421.63;10501620;28;20432;-60
2021/09/25 15:54:30;;;;;;;11.88;8.88;;;;;;;21.31;71.46;101415.59;10501243;28;20057;-59
2021/09/25 15:59:32;;;;;;;13.27;8.68;;;;;;;20.87;73.01;101417.91;10501350;28;20056;-59
2021/09/25 16:04:35;;;;;;;11.85;8.18;;;;;;;19.49;82.66;101427.22;10500626;28;20492;-60
2021/09/25 16:09:37;;;;;;;11.00;7.45;;;;;;;19.27;85.93;101430.03;10500760;28;20044;-59
2021/09/25 16:14:40;;;;;;;12.02;9.20;;;;;;;19.49;82.96;101437.03;10500218;28;20378;-60
2021/09/25 16:19:42;;;;;;;10.68;8.57;;;;;;;19.12;89.71;101434.81;10499965;28;20045;-60
2021/09/25 16:24:44;;;;;;;14.27;8.60;;;;;;;18.86;92.57;101431.66;10499589;28;20048;-60
2021/09/25 16:29:47;;;;;;;10.45;7.00;;;;;;;18.77;95.75;101419.13;10499662;28;20060;-59
2021/09/25 16:34:49;;;;;;;13.93;7.75;;;;;;;18.51;96.19;101430.06;10499409;28;20052;-60
2021/09/25 16:39:52;;;;;;;21.13;13.95;;;;;;;18.43;99.51;101440.47;10499286;28;20055;-60
2021/09/25 16:44:54;;;;;;;14.70;11.73;;;;;;;18.39;99.99;101442.47;10499449;28;20052;-60
2021/09/25 16:49:57;;;;;;;12.23;8.05;;;;;;;18.17;100.00;101433.63;10498922;28;20112;-60
2021/09/25 16:54:59;;;;;;;14.07;7.22;;;;;;;17.99;100.00;101438.56;10499418;28;20052;-60
2021/09/25 17:00:03;;;;;;;14.18;7.07;;;;;;;17.82;100.00;101429.25;10498490;28;20048;-60
2021/09/25 17:05:05;;;;;;;16.02;6.85;;;;;;;17.61;100.00;101429.09;10498416;28;20048;-60
2021/09/25 17:10:09;;;;;;;15.25;7.25;;;;;;;17.41;100.00;101430.63;10498240;28;20488;-60
2021/09/25 17:15:12;;;;;;;9.82;6.82;;;;;;;17.18;100.00;101424.47;10498500;28;20047;-60
2021/09/25 17:20:14;;;;;;;11.50;7.70;;;;;;;17.02;100.00;101427.41;10497809;28;20052;-59
2021/09/25 17:25:17;;;;;;;13.13;7.13;;;;;;;16.94;100.00;101432.41;10498595;28;20051;-59
2021/09/25 17:30:20;;;;;;;11.52;7.00;;;;;;;16.80;100.00;101443.16;10498172;28;20063;-59
2021/09/25 17:35:23;;;;;;;10.93;6.97;;;;;;;16.67;100.00;101448.50;10498006;28;20052;-59
2021/09/25 17:40:26;;;;;;;9.93;7.75;;;;;;;16.68;100.00;101439.63;10497445;28;20058;-60
2021/09/25 17:45:30;;;;;;;14.40;6.75;;;;;;;16.68;100.00;101443.09;10497759;28;20045;-59
2021/09/25 17:50:32;;;;;;;11.43;6.90;;;;;;;16.62;100.00;101458.56;10497237;28;20060;-60
2021/09/25 17:55:35;;;;;;;9.77;6.75;;;;;;;16.56;100.00;101457.22;10497934;28;20044;-59
2021/09/25 18:00:38;;;;;;;12.90;8.05;;;;;;;16.53;100.00;101454.78;10497209;28;20052;-60
2021/09/25 18:05:40;;;;;;;10.80;8.43;;;;;;;16.54;100.00;101459.09;10497344;28;20045;-59
2021/09/25 18:10:43;;;;;;;11.60;8.27;;;;;;;16.47;100.00;101455.22;10497733;28;20060;-60
2021/09/25 18:15:46;;;;;;;10.65;8.50;;;;;;;16.40;100.00;101453.97;10497299;28;20055;-60
2021/09/25 18:20:48;;;;;;;15.13;9.55;;;;;;;16.20;100.00;101455.38;10497266;28;20053;-59
2021/09/25 18:25:50;;;;;;;12.50;9.13;;;;;;;16.08;100.00;101460.56;10497208;28;20106;-60
2021/09/25 18:30:53;;;;;;;20.17;12.13;;;;;;;16.11;100.00;101464.81;10500460;28;20068;-60
2021/09/25 18:35:55;;;;;;;16.80;9.77;;;;;;;16.10;100.00;101442.81;10504399;28;20124;-60
2021/09/25 18:40:57;;;;;;;13.88;8.73;;;;;;;15.96;100.00;101443.78;10503802;28;20079;-59
2021/09/25 18:46:00;;;;;;;12.27;8.70;;;;;;;15.93;100.00;101446.66;10504552;28;20041;-60
2021/09/25 18:51:03;;;;;;;10.90;8.35;;;;;;;15.88;100.00;101442.66;10503568;28;20055;-59
2021/09/25 18:56:06;;;;;;;12.82;10.13;;;;;;;15.83;100.00;101444.75;10503961;28;20059;-60
2021/09/25 19:01:08;;;;;;;12.02;9.32;;;;;;;15.66;100.00;101446.72;10503108;28;20048;-60
2021/09/25 19:06:11;;;;;;;11.38;8.30;;;;;;;15.66;100.00;101443.25;10503208;28;20045;-59
2021/09/25 19:11:14;;;;;;;11.48;8.57;;;;;;;15.86;100.00;101448.03;10503085;28;20052;-59
2021/09/25 19:16:18;;;;;;;12.40;8.82;;;;;;;15.54;100.00;101453.69;10502698;28;20127;-59
2021/09/25 19:21:21;;;;;;;11.40;8.73;;;;;;;15.56;100.00;101457.06;10502590;28;20045;-59
2021/09/25 19:26:23;;;;;;;14.15;9.07;;;;;;;15.53;100.00;101459.06;10502514;28;20048;-59
2021/09/25 19:31:26;;;;;;;12.65;9.18;;;;;;;15.55;100.00;101458.03;10502424;28;20061;-60
2021/09/25 19:36:30;;;;;;;11.35;9.10;;;;;;;15.29;100.00;101461.59;10501978;28;20488;-60
2021/09/25 19:41:33;;;;;;;11.07;8.90;;;;;;;15.29;100.00;101461.59;10501266;28;20052;-60
2021/09/25 19:46:39;;;;;;;17.88;10.32;;;;;;;15.49;100.00;101462.88;10501473;28;20423;-60
2021/09/25 19:51:41;;;;;;;14.98;10.35;;;;;;;15.43;100.00;101466.75;10501433;28;20106;-60
2021/09/25 19:56:43;;;;;;;13.38;10.40;;;;;;;15.46;100.00;101458.66;10501051;28;20049;-60
2021/09/25 20:01:52;;;;;;;19.60;11.57;;;;;;;15.30;100.00;101464.13;10501099;28;20060;-60
2021/09/25 20:06:56;;;;;;;19.13;12.98;;;;;;;15.26;100.00;101461.78;10499883;28;20078;-60
2021/09/25 20:11:59;;;;;;;18.35;11.60;;;;;;;15.42;100.00;101455.38;10500756;28;20052;-61
2021/09/25 20:17:01;;;;;;;18.27;12.73;;;;;;;15.27;100.00;101456.41;10500308;28;20049;-60
2021/09/25 20:22:04;;;;;;;19.08;13.73;;;;;;;15.18;100.00;101454.38;10501006;28;20411;-60
2021/09/25 20:27:07;;;;;;;16.42;12.48;;;;;;;15.34;100.00;101456.84;10499747;28;20047;-60
2021/09/25 20:32:09;;;;;;;18.17;13.02;;;;;;;14.98;100.00;101459.19;10499898;28;20059;-60
2021/09/25 20:37:12;;;;;;;19.65;12.73;;;;;;;14.98;100.00;101456.53;10499558;28;20048;-60
2021/09/25 20:42:14;;;;;;;18.25;13.00;;;;;;;15.08;100.00;101453.28;10499129;28;20050;-61
2021/09/25 20:47:16;;;;;;;21.85;14.73;;;;;;;14.81;100.00;101449.75;10499118;28;20049;-59
2021/09/25 20:52:19;;;;;;;18.30;13.02;;;;;;;14.90;100.00;101447.44;10497138;28;20044;-60
2021/09/25 20:57:21;;;;;;;18.33;12.00;;;;;;;15.08;100.00;101440.97;10498651;28;20480;-60
2021/09/25 21:02:24;;;;;;;23.92;15.68;;;;;;;14.85;100.00;101448.56;10498669;28;20377;-60
2021/09/25 21:07:26;;;;;;;17.52;12.98;;;;;;;14.82;100.00;101438.22;10498744;28;20044;-60
2021/09/25 21:12:29;;;;;;;19.95;14.50;;;;;;;14.64;100.00;101436.78;10498898;28;20052;-60
2021/09/25 21:17:31;;;;;;;19.40;14.52;;;;;;;14.73;100.00;101436.19;10498088;28;20052;-60
2021/09/25 21:22:35;;;;;;;20.60;15.00;;;;;;;14.76;100.00;101436.00;10498665;28;20123;-60
2021/09/25 21:27:39;;;;;;;22.35;15.60;;;;;;;14.59;100.00;101430.97;10498670;28;20040;-60
2021/09/25 21:32:41;;;;;;;22.88;16.77;;;;;;;14.49;100.00;101423.63;10498225;28;20060;-60
2021/09/25 21:37:44;;;;;;;23.98;16.77;;;;;;;14.43;100.00;101420.53;10497856;28;20044;-60
2021/09/25 21:42:47;;;;;;;21.30;16.95;;;;;;;14.37;100.00;101418.28;10498531;28;20044;-60
2021/09/25 21:47:49;;;;;;;21.73;15.85;;;;;;;14.28;100.00;101411.81;10497507;28;20051;-60
2021/09/25 21:52:52;;;;;;;24.55;15.52;;;;;;;14.09;100.00;101412.97;10497739;28;20049;-60
2021/09/25 21:57:54;;;;;;;23.98;17.08;;;;;;;14.09;100.00;101417.41;10497262;28;20447;-60
2021/09/25 22:02:57;;;;;;;24.85;15.60;;;;;;;14.23;100.00;101411.28;10498309;28;20071;-59
2021/09/25 22:08:00;;;;;;;24.13;16.35;;;;;;;13.96;100.00;101409.41;10505943;28;20068;-60
2021/09/25 22:13:02;;;;;;;20.75;16.00;;;;;;;13.90;100.00;101413.28;10505190;28;20052;-61
2021/09/25 22:18:04;;;;;;;31.13;19.30;;;;;;;14.04;100.00;101414.22;10504691;28;20417;-60
2021/09/25 22:23:07;;;;;;;22.58;16.25;;;;;;;14.18;100.00;101411.56;10504903;28;20052;-61
2021/09/25 22:28:10;;;;;;;21.42;16.10;;;;;;;14.01;100.00;101409.97;10504596;28;20127;-60
2021/09/25 22:33:21;;;;;;;36.63;20.95;;;;;;;13.94;100.00;101404.25;10505032;28;20063;-60
2021/09/25 22:38:26;;;;;;;25.08;17.30;;;;;;;13.75;100.00;101401.91;10504274;28;20052;-60